createdAt,value
2022-11-24T00:02:19.080Z,96.22
2022-11-24T00:04:45.707Z,96.53
2022-11-24T00:07:12.416Z,96.44
2022-11-24T00:09:38.989Z,96.55
2022-11-24T00:12:05.585Z,96.76
2022-11-24T00:14:32.375Z,96.64
2022-11-24T00:16:59.090Z,96.45
2022-11-24T00:19:26.134Z,96.75
2022-11-24T00:21:53.000Z,96.68
2022-11-24T00:24:19.546Z,96.92
2022-11-24T00:26:46.236Z,96.80
2022-11-24T00:29:12.850Z,96.58
2022-11-24T00:31:43.534Z,96.62
2022-11-24T00:34:13.805Z,96.50
2022-11-24T00:36:41.537Z,96.37
2022-11-24T00:39:11.991Z,96.56
2022-11-24T00:41:39.037Z,96.60
2022-11-24T00:44:05.878Z,96.35
2022-11-24T00:46:32.805Z,96.63
2022-11-24T00:49:00.725Z,96.70
2022-11-24T00:51:29.775Z,96.62
2022-11-24T00:53:58.824Z,96.69
2022-11-24T00:56:26.569Z,96.44
2022-11-24T00:58:53.187Z,96.54
2022-11-24T01:01:23.222Z,96.56
2022-11-24T01:03:50.533Z,96.56
2022-11-24T01:06:19.978Z,96.10
2022-11-24T01:08:47.295Z,96.39
2022-11-24T01:11:17.945Z,96.61
2022-11-24T01:13:46.633Z,96.23
2022-11-24T01:16:15.414Z,96.20
2022-11-24T01:18:42.136Z,96.17
2022-11-24T01:21:10.414Z,96.22
2022-11-24T01:23:37.598Z,96.00
2022-11-24T01:26:06.346Z,95.72
2022-11-24T01:28:33.284Z,95.68
2022-11-24T01:31:01.562Z,95.40
2022-11-24T01:33:28.547Z,95.49
2022-11-24T01:35:55.309Z,95.69
2022-11-24T01:38:21.947Z,95.31
2022-11-24T01:40:48.785Z,95.22
2022-11-24T01:43:18.021Z,95.26
2022-11-24T01:45:45.456Z,95.40
2022-11-24T01:48:24.459Z,95.43
2022-11-24T01:51:06.049Z,95.49
2022-11-24T01:53:32.682Z,95.36
2022-11-24T01:55:59.580Z,95.16
2022-11-24T01:58:31.324Z,95.15
2022-11-24T02:00:57.969Z,95.00
2022-11-24T02:03:32.499Z,95.11
2022-11-24T02:06:03.856Z,95.60
2022-11-24T02:08:44.046Z,95.27
2022-11-24T02:11:10.588Z,95.43
2022-11-24T02:13:39.852Z,95.75
2022-11-24T02:16:10.406Z,95.59
2022-11-24T02:18:39.002Z,95.76
2022-11-24T02:21:06.543Z,95.93
2022-11-24T02:23:41.110Z,95.50
2022-11-24T02:26:27.402Z,95.58
2022-11-24T02:28:54.162Z,96.06
2022-11-24T02:31:20.729Z,95.70
2022-11-24T02:33:50.092Z,95.53
2022-11-24T02:36:17.895Z,95.80
2022-11-24T02:38:44.560Z,95.87
2022-11-24T02:41:16.910Z,95.67
2022-11-24T02:43:48.693Z,95.66
2022-11-24T02:46:15.391Z,95.55
2022-11-24T02:48:41.941Z,95.53
2022-11-24T02:51:08.698Z,95.41
2022-11-24T02:53:35.431Z,95.44
2022-11-24T02:56:02.029Z,95.44
2022-11-24T02:58:28.615Z,95.13
2022-11-24T03:00:55.260Z,95.35
2022-11-24T03:03:22.147Z,94.92
2022-11-24T03:05:48.780Z,95.14
2022-11-24T03:08:15.403Z,95.04
2022-11-24T03:10:42.409Z,94.97
2022-11-24T03:13:09.004Z,94.92
2022-11-24T03:15:36.393Z,94.74
2022-11-24T03:18:03.078Z,94.89
2022-11-24T03:20:30.117Z,95.48
2022-11-24T03:22:56.970Z,94.96
2022-11-24T03:25:23.626Z,94.99
2022-11-24T03:27:50.217Z,95.19
2022-11-24T03:30:16.876Z,95.35
2022-11-24T03:32:43.502Z,95.12
2022-11-24T03:35:10.068Z,95.10
2022-11-24T03:37:37.294Z,94.92
2022-11-24T03:40:04.255Z,94.72
2022-11-24T03:42:30.797Z,94.90
2022-11-24T03:44:57.341Z,94.58
2022-11-24T03:47:23.904Z,94.41
2022-11-24T03:49:50.486Z,94.04
2022-11-24T03:52:17.049Z,94.47
2022-11-24T03:54:43.667Z,94.18
2022-11-24T03:57:10.291Z,94.25
2022-11-24T03:59:36.873Z,94.16
2022-11-24T04:02:03.529Z,94.37
2022-11-24T04:04:30.205Z,93.99
2022-11-24T04:06:56.960Z,94.30
2022-11-24T04:09:23.533Z,94.00
2022-11-24T04:12:10.571Z,94.16
2022-11-24T04:14:37.408Z,94.04
2022-11-24T04:17:04.314Z,94.33
2022-11-24T04:19:31.156Z,94.11
2022-11-24T04:21:57.716Z,94.17
2022-11-24T04:24:24.307Z,94.04
2022-11-24T04:26:50.750Z,93.83
2022-11-24T04:29:17.242Z,94.04
2022-11-24T04:31:43.811Z,93.81
2022-11-24T04:34:11.284Z,93.88
2022-11-24T04:36:37.773Z,93.57
2022-11-24T04:39:19.938Z,93.66
2022-11-24T04:41:50.734Z,93.33
2022-11-24T04:44:17.328Z,93.28
2022-11-24T04:46:43.943Z,93.25
2022-11-24T04:49:11.789Z,93.41
2022-11-24T04:51:40.279Z,93.39
2022-11-24T04:54:07.478Z,93.49
2022-11-24T04:56:34.437Z,93.60
2022-11-24T04:59:06.656Z,93.68
2022-11-24T05:01:34.703Z,93.73
2022-11-24T05:04:01.252Z,93.81
2022-11-24T05:06:27.808Z,93.71
2022-11-24T05:08:54.754Z,93.86
2022-11-24T05:11:21.250Z,93.83
2022-11-24T05:13:47.788Z,93.93
2022-11-24T05:16:14.402Z,93.86
2022-11-24T05:18:41.166Z,93.98
2022-11-24T05:21:07.761Z,93.81
2022-11-24T05:23:34.261Z,93.28
2022-11-24T05:26:01.571Z,93.35
2022-11-24T05:28:28.715Z,93.39
2022-11-24T05:30:59.213Z,93.14
2022-11-24T05:33:28.554Z,92.77
2022-11-24T05:35:55.184Z,93.01
2022-11-24T05:38:23.764Z,92.84
2022-11-24T05:40:50.263Z,92.85
2022-11-24T05:43:17.099Z,92.52
2022-11-24T05:45:44.545Z,92.37
2022-11-24T05:48:13.767Z,92.50
2022-11-24T05:50:40.536Z,92.02
2022-11-24T05:53:10.268Z,91.81
2022-11-24T05:55:37.515Z,91.74
2022-11-24T05:58:06.582Z,92.04
2022-11-24T06:00:34.859Z,91.49
2022-11-24T06:03:01.963Z,91.83
2022-11-24T06:05:29.458Z,91.75
2022-11-24T06:07:56.362Z,91.43
2022-11-24T06:10:24.585Z,91.75
2022-11-24T06:12:51.598Z,91.34
2022-11-24T06:15:18.413Z,91.65
2022-11-24T06:17:45.077Z,91.60
2022-11-24T06:20:12.851Z,91.79
2022-11-24T06:22:39.448Z,91.86
2022-11-24T06:25:06.213Z,91.86
2022-11-24T06:27:32.762Z,92.03
2022-11-24T06:29:59.392Z,92.07
2022-11-24T06:32:26.006Z,92.17
2022-11-24T06:34:52.540Z,92.21
2022-11-24T06:37:19.171Z,92.28
2022-11-24T06:39:45.744Z,92.44
2022-11-24T06:42:12.379Z,92.63
2022-11-24T06:44:39.414Z,92.54
2022-11-24T06:47:05.933Z,92.91
2022-11-24T06:49:32.479Z,92.94
2022-11-24T06:51:59.038Z,92.68
2022-11-24T06:54:25.604Z,92.90
2022-11-24T06:56:57.383Z,93.08
2022-11-24T06:59:23.914Z,92.83
2022-11-24T07:01:52.534Z,92.72
2022-11-24T07:04:19.558Z,93.29
2022-11-24T07:06:46.511Z,92.93
2022-11-24T07:09:14.285Z,93.10
2022-11-24T07:11:41.442Z,93.31
2022-11-24T07:14:08.382Z,93.07
2022-11-24T07:16:34.953Z,93.12
2022-11-24T07:19:02.050Z,93.20
2022-11-24T07:21:30.586Z,93.33
2022-11-24T07:23:57.877Z,93.53
2022-11-24T07:26:25.868Z,93.77
2022-11-24T07:28:52.708Z,93.74
2022-11-24T07:31:21.645Z,93.82
2022-11-24T07:33:50.220Z,93.79
2022-11-24T07:36:16.984Z,94.16
2022-11-24T07:38:43.533Z,94.00
2022-11-24T07:41:11.960Z,94.38
2022-11-24T07:43:38.996Z,94.14
2022-11-24T07:46:07.528Z,94.46
2022-11-24T07:48:34.604Z,94.19
2022-11-24T07:51:02.500Z,94.50
2022-11-24T07:53:29.227Z,94.55
2022-11-24T07:55:58.189Z,94.35
2022-11-24T07:58:28.881Z,94.31
2022-11-24T08:00:59.027Z,94.36
2022-11-24T08:03:25.806Z,94.68
2022-11-24T08:08:45.341Z,94.63
2022-11-24T08:11:14.443Z,94.53
2022-11-24T08:13:41.296Z,94.90
2022-11-24T08:16:11.364Z,94.76
2022-11-24T08:18:38.890Z,94.88
2022-11-24T08:21:06.761Z,95.08
2022-11-24T08:23:35.035Z,95.19
2022-11-24T08:26:08.897Z,94.98
2022-11-24T08:28:35.663Z,95.05
2022-11-24T08:31:04.910Z,95.15
2022-11-24T08:33:31.843Z,95.05
2022-11-24T08:36:04.409Z,94.85
2022-11-24T08:38:30.971Z,95.18
2022-11-24T08:41:03.561Z,95.09
2022-11-24T08:43:30.541Z,95.30
2022-11-24T08:46:08.273Z,95.20
2022-11-24T08:48:35.792Z,95.23
2022-11-24T08:51:09.098Z,95.24
2022-11-24T08:53:35.744Z,95.47
2022-11-24T08:56:03.876Z,95.07
2022-11-24T08:58:31.345Z,95.21
2022-11-24T09:01:06.627Z,95.30
2022-11-24T09:03:34.518Z,95.16
2022-11-24T09:06:02.369Z,95.29
2022-11-24T09:08:30.912Z,94.90
2022-11-24T09:11:02.124Z,95.37
2022-11-24T09:13:28.867Z,95.13
2022-11-24T09:15:56.406Z,95.01
2022-11-24T09:18:26.350Z,95.04
2022-11-24T09:21:06.965Z,95.24
2022-11-24T09:23:34.144Z,95.22
2022-11-24T09:26:11.230Z,95.40
2022-11-24T09:28:37.932Z,95.11
2022-11-24T09:31:07.821Z,95.07
2022-11-24T09:33:36.837Z,95.06
2022-11-24T09:36:04.264Z,94.88
2022-11-24T09:38:31.407Z,95.16
2022-11-24T09:41:15.234Z,95.25
2022-11-24T09:43:56.778Z,95.21
2022-11-24T09:46:27.607Z,94.94
2022-11-24T09:48:57.265Z,95.17
2022-11-24T09:51:28.765Z,95.10
2022-11-24T09:54:02.663Z,95.22
2022-11-24T09:56:33.324Z,94.83
2022-11-24T09:59:21.280Z,94.64
2022-11-24T10:01:48.985Z,94.89
2022-11-24T10:08:09.565Z,94.79
2022-11-24T10:11:00.145Z,94.75
2022-11-24T10:13:57.736Z,94.59
2022-11-24T10:17:07.743Z,94.50
2022-11-24T10:19:55.250Z,94.66
2022-11-24T10:22:46.583Z,94.31
2022-11-24T10:25:56.419Z,94.14
2022-11-24T10:29:21.435Z,94.08
2022-11-24T10:39:12.619Z,93.55
2022-11-24T10:42:00.686Z,93.20
2022-11-24T10:48:07.765Z,92.79
2022-11-24T10:50:38.136Z,92.88
2022-11-24T10:53:15.162Z,92.99
2022-11-24T10:56:00.902Z,93.08
2022-11-24T10:58:38.271Z,92.94
2022-11-24T11:01:14.441Z,93.12
2022-11-24T11:03:50.167Z,92.96
2022-11-24T11:06:29.734Z,92.44
2022-11-24T11:09:06.430Z,92.11
2022-11-24T11:11:34.324Z,91.91
2022-11-24T11:14:04.846Z,91.60
2022-11-24T11:16:36.334Z,91.45
2022-11-24T11:19:20.311Z,91.48
2022-11-24T11:22:02.950Z,91.34
2022-11-24T11:24:30.082Z,91.21
2022-11-24T11:27:03.328Z,91.07
2022-11-24T11:35:12.182Z,90.84
2022-11-24T11:37:38.825Z,90.59
2022-11-24T11:40:14.842Z,90.62
2022-11-24T11:43:02.474Z,90.70
2022-11-24T11:45:35.914Z,90.97
2022-11-24T11:48:02.937Z,90.92
2022-11-24T11:51:14.759Z,90.86
2022-11-24T11:53:36.909Z,90.98
2022-11-24T11:56:25.892Z,90.60
2022-11-24T11:59:12.873Z,90.32
2022-11-24T12:01:55.100Z,90.09
2022-11-24T12:04:29.083Z,90.07
2022-11-24T12:07:01.160Z,90.11
2022-11-24T12:09:45.987Z,90.03
2022-11-24T12:12:33.013Z,89.62
2022-11-24T12:15:10.541Z,89.46
2022-11-24T12:17:46.880Z,89.33
2022-11-24T12:20:46.643Z,89.31
2022-11-24T12:23:28.160Z,89.48
2022-11-24T12:26:25.270Z,89.87
2022-11-24T12:29:19.253Z,89.23
2022-11-24T12:32:09.816Z,89.27
2022-11-24T12:34:58.468Z,89.00
2022-11-24T12:37:52.844Z,89.24
2022-11-24T12:40:46.580Z,89.15
2022-11-24T12:43:23.066Z,88.92
2022-11-24T12:46:17.487Z,89.25
2022-11-24T12:49:10.139Z,89.21
2022-11-24T12:54:41.369Z,89.23
2022-11-24T12:57:25.325Z,88.69
2022-11-24T13:00:17.138Z,88.41
2022-11-24T13:03:04.179Z,88.22
2022-11-24T13:05:46.194Z,88.06
2022-11-24T13:08:29.625Z,88.33
2022-11-24T13:11:21.920Z,88.91
2022-11-24T13:14:05.560Z,89.01
2022-11-24T13:16:38.650Z,88.73
2022-11-24T13:19:22.095Z,88.63
2022-11-24T13:21:53.643Z,88.89
2022-11-24T13:24:26.558Z,89.02
2022-11-24T13:27:37.899Z,89.26
2022-11-24T13:30:36.743Z,89.45
2022-11-24T13:33:29.388Z,89.15
2022-11-24T13:36:32.235Z,88.96
2022-11-24T13:39:27.594Z,89.25
2022-11-24T13:41:52.359Z,88.91
2022-11-24T13:44:24.905Z,88.95
2022-11-24T13:47:04.813Z,89.00
2022-11-24T13:49:40.789Z,88.96
2022-11-24T13:52:36.278Z,88.88
2022-11-24T13:55:16.058Z,88.93
2022-11-24T13:58:52.339Z,89.08
2022-11-24T14:01:33.659Z,89.06
2022-11-24T14:04:33.551Z,88.44
2022-11-24T14:07:09.235Z,88.76
2022-11-24T14:09:42.119Z,88.92
2022-11-24T14:12:16.840Z,88.91
2022-11-24T14:14:45.037Z,89.21
2022-11-24T14:17:22.369Z,89.00
2022-11-24T14:19:51.559Z,89.05
2022-11-24T14:22:21.450Z,88.95
2022-11-24T14:24:58.898Z,88.70
2022-11-24T14:27:31.181Z,89.16
2022-11-24T14:30:01.490Z,88.97
2022-11-24T14:32:28.827Z,89.31
2022-11-24T14:34:58.911Z,88.87
2022-11-24T14:37:25.509Z,88.99
2022-11-24T14:39:52.113Z,88.98
2022-11-24T14:42:25.444Z,88.87
2022-11-24T14:44:56.437Z,89.07
2022-11-24T14:47:31.673Z,89.21
2022-11-24T14:50:09.566Z,89.29
2022-11-24T14:52:36.569Z,89.27
2022-11-24T14:55:21.767Z,89.33
2022-11-24T14:57:49.260Z,89.53
2022-11-24T15:00:18.127Z,89.55
2022-11-24T15:02:48.472Z,89.68
2022-11-24T15:05:16.411Z,89.66
2022-11-24T15:07:46.437Z,89.70
2022-11-24T15:10:33.769Z,90.05
2022-11-24T15:13:03.217Z,90.04
2022-11-24T15:15:33.603Z,90.28
2022-11-24T15:18:01.906Z,90.28
2022-11-24T15:20:41.552Z,89.96
2022-11-24T15:23:31.096Z,90.38
2022-11-24T15:26:17.984Z,89.75
2022-11-24T15:28:46.845Z,90.14
2022-11-24T15:31:14.267Z,89.79
2022-11-24T15:33:42.221Z,90.13
2022-11-24T15:36:08.864Z,89.92
2022-11-24T15:38:35.340Z,90.19
2022-11-24T15:41:01.999Z,90.25
2022-11-24T15:43:38.329Z,90.16
2022-11-24T15:46:06.076Z,90.39
2022-11-24T15:48:33.813Z,90.62
2022-11-24T15:51:03.054Z,90.54
2022-11-24T15:53:32.646Z,90.02
2022-11-24T15:56:01.417Z,89.85
2022-11-24T15:58:28.006Z,90.20
2022-11-24T16:00:54.884Z,90.55
2022-11-24T16:03:46.258Z,90.49
2022-11-24T16:06:13.110Z,90.21
2022-11-24T16:08:39.756Z,90.16
2022-11-24T16:11:06.469Z,90.25
2022-11-24T16:13:33.040Z,90.17
2022-11-24T16:15:59.817Z,90.68
2022-11-24T16:18:26.425Z,90.35
2022-11-24T16:20:52.943Z,90.45
2022-11-24T16:23:19.546Z,90.32
2022-11-24T16:25:46.205Z,90.56
2022-11-24T16:28:12.716Z,90.29
2022-11-24T16:30:39.249Z,90.36
2022-11-24T16:33:06.740Z,90.77
2022-11-24T16:35:33.949Z,90.56
2022-11-24T16:38:00.552Z,90.71
2022-11-24T16:40:39.375Z,90.20
2022-11-24T16:43:06.336Z,90.47
2022-11-24T16:45:33.032Z,90.78
2022-11-24T16:48:01.787Z,90.96
2022-11-24T16:50:29.426Z,91.04
2022-11-24T16:52:56.407Z,90.60
2022-11-24T16:55:22.981Z,91.00
2022-11-24T16:57:49.636Z,91.31
2022-11-24T17:00:16.584Z,91.20
2022-11-24T17:02:43.187Z,90.82
2022-11-24T17:05:09.977Z,90.72
2022-11-24T17:07:36.625Z,91.11
2022-11-24T17:10:03.524Z,91.05
2022-11-24T17:12:30.074Z,91.18
2022-11-24T17:15:24.626Z,91.37
2022-11-24T17:18:08.489Z,91.29
2022-11-24T17:20:31.462Z,91.38
2022-11-24T17:22:58.104Z,91.48
2022-11-24T17:25:24.634Z,91.43
2022-11-24T17:27:53.001Z,91.53
2022-11-24T17:30:19.688Z,91.71
2022-11-24T17:32:46.361Z,91.61
2022-11-24T17:35:13.235Z,91.68
2022-11-24T17:37:39.800Z,91.97
2022-11-24T17:40:27.264Z,92.07
2022-11-24T17:42:53.636Z,92.26
2022-11-24T17:45:20.329Z,92.40
2022-11-24T17:47:46.911Z,92.24
2022-11-24T17:50:13.465Z,91.84
2022-11-24T17:52:40.058Z,92.17
2022-11-24T17:55:06.880Z,91.98
2022-11-24T17:57:33.405Z,92.05
2022-11-24T17:59:59.993Z,92.10
2022-11-24T18:02:26.648Z,91.70
2022-11-24T18:04:53.272Z,91.77
2022-11-24T18:07:19.914Z,91.70
2022-11-24T18:09:46.800Z,91.72
2022-11-24T18:12:13.497Z,91.86
2022-11-24T18:14:40.047Z,91.95
2022-11-24T18:17:06.898Z,91.83
2022-11-24T18:19:33.565Z,91.65
2022-11-24T18:22:00.086Z,91.86
2022-11-24T18:24:26.602Z,91.79
2022-11-24T18:26:53.193Z,91.34
2022-11-24T18:29:19.742Z,91.29
2022-11-24T18:31:46.499Z,91.70
2022-11-24T18:34:13.237Z,91.40
2022-11-24T18:36:39.817Z,91.55
2022-11-24T18:39:08.214Z,91.18
2022-11-24T18:41:35.850Z,91.12
2022-11-24T18:44:03.319Z,90.91
2022-11-24T18:46:30.121Z,90.77
2022-11-24T18:48:56.778Z,90.80
2022-11-24T18:51:23.624Z,90.46
2022-11-24T18:53:54.430Z,90.28
2022-11-24T18:56:21.307Z,90.32
2022-11-24T18:58:47.849Z,90.16
2022-11-24T19:01:16.761Z,90.10
2022-11-24T19:03:49.000Z,89.97
2022-11-24T19:06:23.907Z,89.99
2022-11-24T19:08:53.861Z,89.83
2022-11-24T19:11:23.061Z,89.84
2022-11-24T19:13:50.493Z,89.59
2022-11-24T19:16:19.663Z,89.76
2022-11-24T19:18:53.714Z,89.55
2022-11-24T19:21:22.021Z,89.08
2022-11-24T19:23:49.457Z,89.23
2022-11-24T19:26:16.135Z,88.99
2022-11-24T19:28:42.797Z,89.15
2022-11-24T19:31:13.815Z,89.03
2022-11-24T19:33:41.743Z,88.71
2022-11-24T19:36:12.293Z,88.83
2022-11-24T19:38:39.571Z,88.93
2022-11-24T19:41:12.080Z,88.63
2022-11-24T19:43:39.800Z,88.57
2022-11-24T19:46:08.805Z,88.33
2022-11-24T19:48:37.826Z,88.48
2022-11-24T19:51:10.303Z,88.32
2022-11-24T19:53:37.963Z,88.41
2022-11-24T19:56:06.016Z,88.20
2022-11-24T19:58:32.775Z,87.96
2022-11-24T20:01:11.166Z,87.67
2022-11-24T20:03:38.956Z,87.84
2022-11-24T20:06:07.446Z,87.54
2022-11-24T20:11:28.968Z,87.69
2022-11-24T20:13:56.631Z,87.56
2022-11-24T20:16:28.250Z,87.43
2022-11-24T20:18:57.176Z,87.36
2022-11-24T20:21:28.547Z,87.32
2022-11-24T20:24:07.760Z,87.11
2022-11-24T20:26:37.938Z,87.29
2022-11-24T20:29:06.756Z,87.53
2022-11-24T20:31:38.646Z,87.04
2022-11-24T20:34:06.652Z,87.16
2022-11-24T20:36:34.906Z,87.11
2022-11-24T20:39:10.470Z,87.03
2022-11-24T20:41:38.974Z,87.56
2022-11-24T20:44:08.503Z,87.12
2022-11-24T20:46:37.711Z,87.01
2022-11-24T20:49:05.731Z,87.12
2022-11-24T20:51:34.790Z,87.23
2022-11-24T20:54:04.052Z,87.10
2022-11-24T20:56:33.119Z,86.88
2022-11-24T20:59:00.239Z,87.23
2022-11-24T21:01:30.491Z,87.03
2022-11-24T21:03:59.086Z,87.03
2022-11-24T21:06:28.100Z,86.79
2022-11-24T21:09:00.467Z,87.04
2022-11-24T21:11:30.277Z,87.39
2022-11-24T21:13:57.289Z,86.91
2022-11-24T21:16:29.660Z,87.15
2022-11-24T21:18:59.379Z,86.91
2022-11-24T21:24:26.152Z,87.23
2022-11-24T21:26:53.129Z,86.90
2022-11-24T21:29:23.389Z,86.77
2022-11-24T21:31:50.295Z,86.92
2022-11-24T21:34:19.019Z,87.09
2022-11-24T21:36:46.016Z,86.89
2022-11-24T21:39:14.654Z,86.92
2022-11-24T21:41:42.100Z,86.85
2022-11-24T21:44:10.403Z,86.85
2022-11-24T21:46:44.118Z,87.21
2022-11-24T21:49:14.701Z,86.93
2022-11-24T21:51:41.392Z,87.02
2022-11-24T21:54:08.320Z,87.05
2022-11-24T21:56:37.686Z,86.89
2022-11-24T21:59:04.473Z,87.01
2022-11-24T22:01:31.132Z,87.09
2022-11-24T22:03:57.870Z,87.13
2022-11-24T22:06:24.660Z,87.26
2022-11-24T22:08:51.403Z,87.13
2022-11-24T22:11:21.626Z,87.24
2022-11-24T22:13:48.957Z,87.38
2022-11-24T22:16:18.624Z,87.45
2022-11-24T22:18:45.812Z,87.43
2022-11-24T22:21:15.741Z,87.02
2022-11-24T22:23:43.301Z,87.13
2022-11-24T22:26:15.537Z,87.19
2022-11-24T22:28:43.153Z,87.09
2022-11-24T22:31:12.991Z,87.60
2022-11-24T22:33:39.790Z,87.43
2022-11-24T22:36:06.930Z,87.57
2022-11-24T22:38:34.759Z,87.63
2022-11-24T22:41:04.652Z,87.87
2022-11-24T22:43:34.322Z,87.73
2022-11-24T22:46:06.907Z,87.58
2022-11-24T22:48:34.058Z,88.03
2022-11-24T22:51:03.836Z,87.90
2022-11-24T22:53:30.462Z,87.81
2022-11-24T22:56:01.407Z,87.97
2022-11-24T22:58:28.016Z,88.08
2022-11-24T23:00:55.642Z,88.03
2022-11-24T23:03:22.542Z,87.96
2022-11-24T23:05:49.333Z,88.14
2022-11-24T23:08:15.983Z,88.08
2022-11-24T23:10:42.618Z,88.20
2022-11-24T23:13:10.654Z,88.17
2022-11-24T23:15:37.246Z,88.25
2022-11-24T23:18:05.304Z,88.41
2022-11-24T23:20:31.934Z,88.22
2022-11-24T23:22:58.607Z,88.55
2022-11-24T23:25:25.216Z,88.44
2022-11-24T23:27:51.808Z,88.59
2022-11-24T23:30:22.810Z,88.48
2022-11-24T23:32:49.359Z,88.57
2022-11-24T23:35:15.976Z,88.91
2022-11-24T23:38:06.495Z,89.18
2022-11-24T23:40:31.433Z,88.97
2022-11-24T23:42:57.970Z,89.45
2022-11-24T23:45:24.722Z,89.38
2022-11-24T23:47:53.988Z,89.68
2022-11-24T23:50:22.574Z,89.82
2022-11-24T23:53:07.940Z,89.99
2022-11-24T23:56:05.368Z,90.22
2022-11-24T23:58:34.823Z,90.57
